createdAt,value
2023-01-04T00:01:47.849Z,81.66
2023-01-04T00:04:20.939Z,81.37
2023-01-04T00:06:53.564Z,80.91
2023-01-04T00:09:26.622Z,80.83
2023-01-04T00:12:00.729Z,81.33
2023-01-04T00:14:33.819Z,80.76
2023-01-04T00:17:06.996Z,80.88
2023-01-04T00:19:40.337Z,81.38
2023-01-04T00:22:13.435Z,81.67
2023-01-04T00:24:46.706Z,80.88
2023-01-04T00:27:21.228Z,81.33
2023-01-04T00:29:54.475Z,81.56
2023-01-04T00:32:27.516Z,81.21
2023-01-04T00:35:02.440Z,82.21
2023-01-04T00:37:35.523Z,80.94
2023-01-04T00:40:08.859Z,81.30
2023-01-04T00:42:43.231Z,81.80
2023-01-04T00:45:16.653Z,80.95
2023-01-04T00:47:49.521Z,81.68
2023-01-04T00:50:24.825Z,81.97
2023-01-04T00:52:57.673Z,81.59
2023-01-04T00:55:30.950Z,81.18
2023-01-04T00:58:05.981Z,80.88
2023-01-04T01:00:39.555Z,81.05
2023-01-04T01:03:12.734Z,81.02
2023-01-04T01:05:45.894Z,80.92
2023-01-04T01:08:27.343Z,81.14
2023-01-04T01:11:04.982Z,80.79
2023-01-04T01:13:40.273Z,80.63
2023-01-04T01:16:17.101Z,81.20
2023-01-04T01:18:50.736Z,80.90
2023-01-04T01:21:27.185Z,81.12
2023-01-04T01:24:00.053Z,81.36
2023-01-04T01:26:33.294Z,80.61
2023-01-04T01:29:10.286Z,81.09
2023-01-04T01:31:43.588Z,81.28
2023-01-04T01:34:16.535Z,81.23
2023-01-04T01:36:49.319Z,81.67
2023-01-04T01:39:22.051Z,81.31
2023-01-04T01:41:56.372Z,81.36
2023-01-04T01:44:56.220Z,81.57
2023-01-04T01:47:37.095Z,81.55
2023-01-04T01:50:21.898Z,81.61
2023-01-04T01:52:56.108Z,81.34
2023-01-04T01:55:32.373Z,81.04
2023-01-04T01:58:09.896Z,81.23
2023-01-04T02:00:44.184Z,80.82
2023-01-04T02:03:19.930Z,81.02
2023-01-04T02:05:56.500Z,81.12
2023-01-04T02:08:31.147Z,81.23
2023-01-04T02:11:04.883Z,80.45
2023-01-04T02:13:58.161Z,80.43
2023-01-04T02:16:52.116Z,80.84
2023-01-04T02:19:43.939Z,81.21
2023-01-04T02:23:11.918Z,81.27
2023-01-04T02:26:10.667Z,81.50
2023-01-04T02:29:08.105Z,81.11
2023-01-04T02:31:46.447Z,81.48
2023-01-04T02:34:29.807Z,81.72
2023-01-04T02:37:13.146Z,81.29
2023-01-04T02:39:57.417Z,82.19
2023-01-04T02:42:58.760Z,82.22
2023-01-04T02:45:39.098Z,82.23
2023-01-04T02:48:31.561Z,82.24
2023-01-04T02:51:04.766Z,81.76
2023-01-04T02:53:41.329Z,81.46
2023-01-04T02:56:35.308Z,81.27
2023-01-04T02:59:22.420Z,81.33
2023-01-04T03:02:22.119Z,82.39
2023-01-04T03:05:24.236Z,81.69
2023-01-04T03:08:06.844Z,82.47
2023-01-04T03:10:42.668Z,82.60
2023-01-04T03:13:19.708Z,82.63
2023-01-04T03:15:55.843Z,82.52
2023-01-04T03:18:32.051Z,82.35
2023-01-04T03:21:10.733Z,82.53
2023-01-04T03:24:03.693Z,82.06
2023-01-04T03:26:58.310Z,81.34
2023-01-04T03:29:55.575Z,81.71
2023-01-04T03:32:55.012Z,81.84
2023-01-04T03:35:38.703Z,82.04
2023-01-04T03:38:37.869Z,81.68
2023-01-04T03:41:37.625Z,81.93
2023-01-04T03:44:33.219Z,81.72
2023-01-04T03:47:27.355Z,81.40
2023-01-04T03:50:08.146Z,81.16
2023-01-04T03:52:44.785Z,81.93
2023-01-04T03:55:19.831Z,81.58
2023-01-04T03:57:53.813Z,81.72
2023-01-04T04:00:27.200Z,81.84
2023-01-04T04:03:07.379Z,81.56
2023-01-04T04:05:59.949Z,81.85
2023-01-04T04:08:32.728Z,82.05
2023-01-04T04:11:21.065Z,82.42
2023-01-04T04:13:54.121Z,82.60
2023-01-04T04:16:27.414Z,82.08
2023-01-04T04:19:06.457Z,82.04
2023-01-04T04:21:41.696Z,81.58
2023-01-04T04:24:19.111Z,82.02
2023-01-04T04:26:54.835Z,82.00
2023-01-04T04:29:27.719Z,81.93
2023-01-04T04:32:00.796Z,82.02
2023-01-04T04:34:33.939Z,81.84
2023-01-04T04:37:07.199Z,82.61
2023-01-04T04:39:39.995Z,81.72
2023-01-04T04:42:13.337Z,82.01
2023-01-04T04:44:46.334Z,81.88
2023-01-04T04:47:19.038Z,82.11
2023-01-04T04:49:51.962Z,82.02
2023-01-04T04:52:24.973Z,82.55
2023-01-04T04:54:57.939Z,82.29
2023-01-04T04:57:32.376Z,82.95
2023-01-04T05:00:06.410Z,82.25
2023-01-04T05:02:39.664Z,82.02
2023-01-04T05:05:12.684Z,82.18
2023-01-04T05:07:45.852Z,82.20
2023-01-04T05:10:19.179Z,82.90
2023-01-04T05:13:01.328Z,82.32
2023-01-04T05:15:36.795Z,81.88
2023-01-04T05:18:11.790Z,82.34
2023-01-04T05:20:44.969Z,82.09
2023-01-04T05:23:20.090Z,81.77
2023-01-04T05:25:57.599Z,82.21
2023-01-04T05:28:32.021Z,82.33
2023-01-04T05:31:03.908Z,82.25
2023-01-04T05:33:36.795Z,82.00
2023-01-04T05:36:09.528Z,82.01
2023-01-04T05:38:42.517Z,81.83
2023-01-04T05:41:29.225Z,82.32
2023-01-04T05:44:03.450Z,82.07
2023-01-04T05:46:36.264Z,82.57
2023-01-04T05:49:09.056Z,81.83
2023-01-04T05:51:41.901Z,81.87
2023-01-04T05:54:20.957Z,82.34
2023-01-04T05:56:54.318Z,82.08
2023-01-04T05:59:28.574Z,82.18
2023-01-04T06:02:01.526Z,82.23
2023-01-04T06:04:34.176Z,82.29
2023-01-04T06:07:07.185Z,82.84
2023-01-04T06:09:39.833Z,82.53
2023-01-04T06:12:13.433Z,81.77
2023-01-04T06:14:47.856Z,81.86
2023-01-04T06:17:21.908Z,82.19
2023-01-04T06:19:54.816Z,82.25
2023-01-04T06:22:28.762Z,82.72
2023-01-04T06:25:01.750Z,82.02
2023-01-04T06:27:34.348Z,81.98
2023-01-04T06:30:10.053Z,82.30
2023-01-04T06:32:43.550Z,82.17
2023-01-04T06:35:16.681Z,82.24
2023-01-04T06:37:49.895Z,82.33
2023-01-04T06:40:23.055Z,82.34
2023-01-04T06:42:56.759Z,82.28
2023-01-04T06:45:31.066Z,82.25
2023-01-04T06:48:09.193Z,82.23
2023-01-04T06:50:44.425Z,82.10
2023-01-04T06:53:17.636Z,81.82
2023-01-04T06:55:50.758Z,81.92
2023-01-04T06:58:23.758Z,82.13
2023-01-04T07:00:58.316Z,82.26
2023-01-04T07:03:31.173Z,82.73
2023-01-04T07:06:08.231Z,82.61
2023-01-04T07:08:41.221Z,82.57
2023-01-04T07:11:14.032Z,82.68
2023-01-04T07:13:46.855Z,82.38
2023-01-04T07:16:21.678Z,82.61
2023-01-04T07:18:54.537Z,82.53
2023-01-04T07:21:27.356Z,82.42
2023-01-04T07:24:00.100Z,82.31
2023-01-04T07:26:33.044Z,82.01
2023-01-04T07:29:18.350Z,82.37
2023-01-04T07:31:53.690Z,82.34
2023-01-04T07:34:27.404Z,82.57
2023-01-04T07:37:00.631Z,82.56
2023-01-04T07:39:33.531Z,82.54
2023-01-04T07:42:06.579Z,82.19
2023-01-04T07:44:39.552Z,82.76
2023-01-04T07:47:14.256Z,83.07
2023-01-04T07:49:50.185Z,83.00
2023-01-04T07:52:23.387Z,83.12
2023-01-04T07:54:56.329Z,82.96
2023-01-04T07:57:29.556Z,83.14
2023-01-04T08:00:02.297Z,83.16
2023-01-04T08:02:46.114Z,82.69
2023-01-04T08:05:19.124Z,82.37
2023-01-04T08:07:51.880Z,83.54
2023-01-04T08:10:27.404Z,83.04
2023-01-04T08:13:01.084Z,83.44
2023-01-04T08:15:34.211Z,83.17
2023-01-04T08:18:09.261Z,83.52
2023-01-04T08:20:42.464Z,83.45
2023-01-04T08:23:15.593Z,83.43
2023-01-04T08:25:48.388Z,83.47
2023-01-04T08:28:21.432Z,83.75
2023-01-04T08:30:54.460Z,83.67
2023-01-04T08:33:28.825Z,83.62
2023-01-04T08:36:09.507Z,83.48
2023-01-04T08:44:43.613Z,83.48
2023-01-04T08:47:16.363Z,83.18
2023-01-04T08:49:50.781Z,83.14
2023-01-04T08:52:23.918Z,83.49
2023-01-04T08:54:56.558Z,83.61
2023-01-04T08:57:29.429Z,83.51
2023-01-04T09:00:02.371Z,83.58
2023-01-04T09:02:35.321Z,83.53
2023-01-04T09:05:09.857Z,83.83
2023-01-04T09:07:42.978Z,83.60
2023-01-04T09:10:16.527Z,83.32
2023-01-04T09:12:49.077Z,83.47
2023-01-04T09:15:21.922Z,83.37
2023-01-04T09:20:49.117Z,83.46
2023-01-04T09:23:22.119Z,83.35
2023-01-04T09:25:54.737Z,83.19
2023-01-04T09:28:27.978Z,82.78
2023-01-04T09:31:06.253Z,83.33
2023-01-04T09:34:12.246Z,83.12
2023-01-04T09:36:36.863Z,83.43
2023-01-04T09:39:16.710Z,83.10
2023-01-04T09:41:58.486Z,83.03
2023-01-04T09:47:39.808Z,83.56
2023-01-04T09:50:17.455Z,83.20
2023-01-04T09:52:58.706Z,83.29
2023-01-04T09:55:37.059Z,83.64
2023-01-04T09:58:25.680Z,83.73
2023-01-04T10:01:02.893Z,83.83
2023-01-04T10:03:38.855Z,83.97
2023-01-04T10:06:15.723Z,83.58
2023-01-04T10:08:50.555Z,83.06
2023-01-04T10:11:37.193Z,83.87
2023-01-04T10:14:31.353Z,83.37
2023-01-04T10:17:28.159Z,83.67
2023-01-04T10:23:36.122Z,83.53
2023-01-04T10:26:14.790Z,83.37
2023-01-04T10:29:15.722Z,83.08
2023-01-04T10:31:54.880Z,83.06
2023-01-04T10:34:31.254Z,83.07
2023-01-04T10:37:13.640Z,83.50
2023-01-04T10:39:47.212Z,83.30
2023-01-04T10:42:31.838Z,83.16
2023-01-04T10:45:14.037Z,83.48
2023-01-04T10:47:57.706Z,83.37
2023-01-04T10:50:38.043Z,83.52
2023-01-04T10:53:16.957Z,83.78
2023-01-04T10:56:23.726Z,83.36
2023-01-04T10:58:53.425Z,84.21
2023-01-04T11:01:31.446Z,83.94
2023-01-04T11:04:11.518Z,83.71
2023-01-04T11:06:49.884Z,83.89
2023-01-04T11:09:25.989Z,83.80
2023-01-04T11:11:58.988Z,83.98
2023-01-04T11:14:37.229Z,83.24
2023-01-04T11:17:12.817Z,83.25
2023-01-04T11:19:45.678Z,82.47
2023-01-04T11:22:23.341Z,83.21
2023-01-04T11:28:02.200Z,82.59
2023-01-04T11:30:47.596Z,82.17
2023-01-04T11:33:23.369Z,82.42
2023-01-04T11:35:59.217Z,83.29
2023-01-04T11:38:32.400Z,82.97
2023-01-04T11:41:06.723Z,82.96
2023-01-04T11:43:41.031Z,82.25
2023-01-04T11:46:25.398Z,82.28
2023-01-04T11:48:58.581Z,82.12
2023-01-04T11:51:39.431Z,81.97
2023-01-04T11:54:20.833Z,82.30
2023-01-04T11:57:08.820Z,82.32
2023-01-04T11:59:43.802Z,82.40
2023-01-04T12:02:58.551Z,81.98
2023-01-04T12:05:28.167Z,81.79
2023-01-04T12:08:02.140Z,81.66
2023-01-04T12:10:34.992Z,81.90
2023-01-04T12:13:11.139Z,81.91
2023-01-04T12:15:55.361Z,81.81
2023-01-04T12:18:31.767Z,82.42
2023-01-04T12:21:05.608Z,81.35
2023-01-04T12:23:38.714Z,81.39
2023-01-04T12:26:12.866Z,82.22
2023-01-04T12:28:47.422Z,81.42
2023-01-04T12:31:32.383Z,81.62
2023-01-04T12:34:44.519Z,82.09
2023-01-04T12:37:49.448Z,82.61
2023-01-04T12:40:59.331Z,82.59
2023-01-04T12:43:44.656Z,82.82
2023-01-04T12:47:00.872Z,82.11
2023-01-04T12:49:52.474Z,82.51
2023-01-04T12:53:10.059Z,82.69
2023-01-04T12:55:58.728Z,82.34
2023-01-04T13:02:21.828Z,82.67
2023-01-04T13:05:43.684Z,82.14
2023-01-04T13:07:53.363Z,82.46
2023-01-04T13:10:33.275Z,81.80
2023-01-04T13:13:21.573Z,82.37
2023-01-04T13:16:11.405Z,81.83
2023-01-04T13:18:49.132Z,82.06
2023-01-04T13:21:29.563Z,82.48
2023-01-04T13:24:05.167Z,82.22
2023-01-04T13:26:41.051Z,82.85
2023-01-04T13:29:16.930Z,82.18
2023-01-04T13:31:56.217Z,82.15
2023-01-04T13:34:32.939Z,82.00
2023-01-04T13:37:18.266Z,81.78
2023-01-04T13:39:53.219Z,82.20
2023-01-04T13:42:28.893Z,81.80
2023-01-04T13:45:25.537Z,81.96
2023-01-04T13:48:01.615Z,82.21
2023-01-04T13:50:36.794Z,81.80
2023-01-04T13:53:21.533Z,81.82
2023-01-04T13:55:55.478Z,81.79
2023-01-04T13:58:30.693Z,81.45
2023-01-04T14:01:08.061Z,81.69
2023-01-04T14:03:43.643Z,81.86
2023-01-04T14:06:21.218Z,81.69
2023-01-04T14:09:00.863Z,81.35
2023-01-04T14:11:54.269Z,81.03
2023-01-04T14:14:50.022Z,81.30
2023-01-04T14:17:49.463Z,81.50
2023-01-04T14:20:37.475Z,81.03
2023-01-04T14:23:27.283Z,80.99
2023-01-04T14:26:03.056Z,80.89
2023-01-04T14:28:41.735Z,80.88
2023-01-04T14:31:38.236Z,81.29
2023-01-04T14:34:18.054Z,80.81
2023-01-04T14:36:50.857Z,81.31
2023-01-04T14:39:35.471Z,80.89
2023-01-04T14:42:26.772Z,80.70
2023-01-04T14:44:59.858Z,80.90
2023-01-04T14:47:32.708Z,80.69
2023-01-04T14:50:06.419Z,80.64
2023-01-04T14:52:39.192Z,80.94
2023-01-04T14:55:15.044Z,81.16
2023-01-04T14:57:49.178Z,80.47
2023-01-04T15:00:22.202Z,81.33
2023-01-04T15:02:55.421Z,81.12
2023-01-04T15:05:31.669Z,80.53
2023-01-04T15:08:07.169Z,80.50
2023-01-04T15:10:40.282Z,80.81
2023-01-04T15:13:14.583Z,80.65
2023-01-04T15:15:47.830Z,80.64
2023-01-04T15:18:21.446Z,80.77
2023-01-04T15:20:54.762Z,80.73
2023-01-04T15:23:28.187Z,80.90
2023-01-04T15:26:01.870Z,80.64
2023-01-04T15:28:37.763Z,80.39
2023-01-04T15:31:13.098Z,80.48
2023-01-04T15:33:47.311Z,80.24
2023-01-04T15:36:23.982Z,80.25
2023-01-04T15:38:59.188Z,80.24
2023-01-04T15:41:49.335Z,80.70
2023-01-04T15:44:24.101Z,80.44
2023-01-04T15:46:59.287Z,80.16
2023-01-04T15:49:33.995Z,80.09
2023-01-04T15:52:08.400Z,80.45
2023-01-04T15:54:41.391Z,80.23
2023-01-04T15:57:16.788Z,80.34
2023-01-04T15:59:51.702Z,80.48
2023-01-04T16:02:24.804Z,79.90
2023-01-04T16:04:57.858Z,80.29
2023-01-04T16:07:34.470Z,80.23
2023-01-04T16:10:10.357Z,80.49
2023-01-04T16:12:49.828Z,80.46
2023-01-04T16:15:32.203Z,80.53
2023-01-04T16:18:11.407Z,80.26
2023-01-04T16:20:47.952Z,79.72
2023-01-04T16:23:21.139Z,80.28
2023-01-04T16:26:05.651Z,79.87
2023-01-04T16:28:39.184Z,80.30
2023-01-04T16:31:14.116Z,80.04
2023-01-04T16:33:49.641Z,80.36
2023-01-04T16:36:25.447Z,80.43
2023-01-04T16:38:59.158Z,79.88
2023-01-04T16:41:33.215Z,79.82
2023-01-04T16:44:07.391Z,79.39
2023-01-04T16:46:43.931Z,79.79
2023-01-04T16:49:18.631Z,79.37
2023-01-04T16:51:53.249Z,79.75
2023-01-04T16:54:26.466Z,80.12
2023-01-04T16:57:01.780Z,80.58
2023-01-04T16:59:39.305Z,80.38
2023-01-04T17:02:17.310Z,80.12
2023-01-04T17:04:57.117Z,80.17
2023-01-04T17:07:33.132Z,79.68
2023-01-04T17:10:07.435Z,79.81
2023-01-04T17:12:47.953Z,79.65
2023-01-04T17:18:20.890Z,80.17
2023-01-04T17:20:55.708Z,79.96
2023-01-04T17:23:37.967Z,79.83
2023-01-04T17:26:13.680Z,79.44
2023-01-04T17:28:47.665Z,80.24
2023-01-04T17:31:26.296Z,79.79
2023-01-04T17:34:01.138Z,79.76
2023-01-04T17:36:36.617Z,80.39
2023-01-04T17:39:09.567Z,79.54
2023-01-04T17:41:42.401Z,79.43
2023-01-04T17:44:17.924Z,79.85
2023-01-04T17:46:50.888Z,80.12
2023-01-04T17:49:31.045Z,80.21
2023-01-04T17:52:07.038Z,80.39
2023-01-04T17:54:41.434Z,80.14
2023-01-04T17:57:14.384Z,79.88
2023-01-04T17:59:47.130Z,79.71
2023-01-04T18:02:19.976Z,79.67
2023-01-04T18:04:54.384Z,80.25
2023-01-04T18:07:28.207Z,79.98
2023-01-04T18:10:04.432Z,80.01
2023-01-04T18:12:37.514Z,80.05
2023-01-04T18:15:10.912Z,79.91
2023-01-04T18:17:43.709Z,79.94
2023-01-04T18:20:24.697Z,79.76
2023-01-04T18:22:58.658Z,79.39
2023-01-04T18:25:34.345Z,79.73
2023-01-04T18:28:09.205Z,79.86
2023-01-04T18:30:42.663Z,79.77
2023-01-04T18:33:20.393Z,79.63
2023-01-04T18:35:58.176Z,79.45
2023-01-04T18:38:31.464Z,79.51
2023-01-04T18:41:07.328Z,79.76
2023-01-04T18:43:58.827Z,80.09
2023-01-04T18:46:39.599Z,79.02
2023-01-04T18:49:14.327Z,79.88
2023-01-04T18:51:49.014Z,78.97
2023-01-04T18:54:24.909Z,79.55
2023-01-04T18:57:05.269Z,79.47
2023-01-04T18:59:41.288Z,79.48
2023-01-04T19:02:18.199Z,79.21
2023-01-04T19:04:51.669Z,79.41
2023-01-04T19:07:26.409Z,79.10
2023-01-04T19:10:02.588Z,78.90
2023-01-04T19:12:39.227Z,79.14
2023-01-04T19:15:12.868Z,78.88
2023-01-04T19:17:50.548Z,79.13
2023-01-04T19:20:23.666Z,79.42
2023-01-04T19:22:58.268Z,79.48
2023-01-04T19:25:31.521Z,79.37
2023-01-04T19:28:04.877Z,78.51
2023-01-04T19:30:40.088Z,78.61
2023-01-04T19:33:17.378Z,78.64
2023-01-04T19:35:50.376Z,78.86
2023-01-04T19:38:27.452Z,78.66
2023-01-04T19:41:04.045Z,79.32
2023-01-04T19:43:39.982Z,78.62
2023-01-04T19:46:13.466Z,78.35
2023-01-04T19:48:46.989Z,77.99
2023-01-04T19:51:24.897Z,78.55
2023-01-04T19:54:01.300Z,78.49
2023-01-04T19:56:34.430Z,78.03
2023-01-04T19:59:09.198Z,78.75
2023-01-04T20:01:46.383Z,78.11
2023-01-04T20:04:20.012Z,78.40
2023-01-04T20:06:54.785Z,77.79
2023-01-04T20:09:33.206Z,77.88
2023-01-04T20:12:08.177Z,78.41
2023-01-04T20:14:41.381Z,78.23
2023-01-04T20:17:14.677Z,78.32
2023-01-04T20:19:50.520Z,77.79
2023-01-04T20:22:23.797Z,77.91
2023-01-04T20:24:58.506Z,78.57
2023-01-04T20:27:31.818Z,78.49
2023-01-04T20:30:05.875Z,78.27
2023-01-04T20:32:39.139Z,77.88
2023-01-04T20:35:12.878Z,77.96
2023-01-04T20:37:48.841Z,77.66
2023-01-04T20:40:23.322Z,77.63
2023-01-04T20:43:15.336Z,77.63
2023-01-04T20:45:52.177Z,78.00
2023-01-04T20:48:25.320Z,78.11
2023-01-04T20:50:59.043Z,77.85
2023-01-04T20:53:38.901Z,78.01
2023-01-04T20:56:15.699Z,77.75
2023-01-04T20:58:49.375Z,78.08
2023-01-04T21:01:23.691Z,78.16
2023-01-04T21:03:57.080Z,77.94
2023-01-04T21:06:30.944Z,78.38
2023-01-04T21:09:04.436Z,78.01
2023-01-04T21:11:38.868Z,78.06
2023-01-04T21:14:18.302Z,78.27
2023-01-04T21:16:53.898Z,78.39
2023-01-04T21:19:27.467Z,78.23
2023-01-04T21:22:04.288Z,78.58
2023-01-04T21:24:37.681Z,78.15
2023-01-04T21:27:12.424Z,78.02
2023-01-04T21:29:46.815Z,79.02
2023-01-04T21:32:20.642Z,78.33
2023-01-04T21:34:55.712Z,78.42
2023-01-04T21:37:29.457Z,78.05
2023-01-04T21:40:02.346Z,78.04
2023-01-04T21:42:36.583Z,78.05
2023-01-04T21:45:12.387Z,78.02
2023-01-04T21:47:48.525Z,78.05
2023-01-04T21:50:21.571Z,77.74
2023-01-04T21:52:58.059Z,77.85
2023-01-04T21:55:34.619Z,78.03
2023-01-04T21:58:11.318Z,78.56
2023-01-04T22:00:46.036Z,78.94
2023-01-04T22:03:19.419Z,77.87
2023-01-04T22:05:52.562Z,78.28
2023-01-04T22:08:25.228Z,78.45
2023-01-04T22:10:58.330Z,78.78
2023-01-04T22:13:35.629Z,78.29
2023-01-04T22:16:10.943Z,78.06
2023-01-04T22:18:47.436Z,78.03
2023-01-04T22:21:23.950Z,78.91
2023-01-04T22:23:57.115Z,78.71
2023-01-04T22:26:30.249Z,78.53
2023-01-04T22:29:06.871Z,78.12
2023-01-04T22:31:39.806Z,78.56
2023-01-04T22:34:14.241Z,78.62
2023-01-04T22:36:47.295Z,78.63
2023-01-04T22:39:21.431Z,78.26
2023-01-04T22:41:54.375Z,77.93
2023-01-04T22:44:28.447Z,78.62
2023-01-04T22:47:07.507Z,78.62
2023-01-04T22:49:40.486Z,78.27
2023-01-04T22:52:13.311Z,78.68
2023-01-04T22:54:49.390Z,78.50
2023-01-04T22:57:24.669Z,78.07
2023-01-04T22:59:59.070Z,78.01
2023-01-04T23:02:32.506Z,78.17
2023-01-04T23:05:06.324Z,77.96
2023-01-04T23:07:39.205Z,78.18
2023-01-04T23:10:12.245Z,78.73
2023-01-04T23:12:48.260Z,78.63
2023-01-04T23:15:22.470Z,77.75
2023-01-04T23:17:55.500Z,77.75
2023-01-04T23:20:28.995Z,78.08
2023-01-04T23:23:01.857Z,77.65
2023-01-04T23:25:38.735Z,78.30
2023-01-04T23:28:11.785Z,78.22
2023-01-04T23:30:48.951Z,78.53
2023-01-04T23:33:24.055Z,78.74
2023-01-04T23:36:00.093Z,78.39
2023-01-04T23:38:33.001Z,78.98
2023-01-04T23:41:06.041Z,78.69
2023-01-04T23:43:39.821Z,78.51
2023-01-04T23:46:16.127Z,78.51
2023-01-04T23:48:49.066Z,78.48
2023-01-04T23:51:21.759Z,78.59
2023-01-04T23:53:54.583Z,78.50
2023-01-04T23:56:27.757Z,78.83
2023-01-04T23:59:01.041Z,78.50
